createdAt,value
2022-10-03T00:02:10.045Z,70.16
2022-10-03T00:04:36.243Z,70.26
2022-10-03T00:07:02.567Z,70.39
2022-10-03T00:09:28.914Z,70.52
2022-10-03T00:11:55.277Z,70.77
2022-10-03T00:14:21.598Z,70.93
2022-10-03T00:16:47.979Z,70.83
2022-10-03T00:19:14.422Z,71.00
2022-10-03T00:21:41.321Z,71.07
2022-10-03T00:24:07.066Z,71.08
2022-10-03T00:26:33.412Z,71.20
2022-10-03T00:28:59.756Z,71.30
2022-10-03T00:31:26.279Z,71.31
2022-10-03T00:33:52.439Z,71.50
2022-10-03T00:36:18.784Z,71.56
2022-10-03T00:38:45.101Z,71.55
2022-10-03T00:41:11.444Z,71.68
2022-10-03T00:43:37.816Z,71.47
2022-10-03T00:46:04.242Z,71.49
2022-10-03T00:48:30.492Z,71.49
2022-10-03T00:50:56.844Z,71.49
2022-10-03T00:53:23.150Z,70.97
2022-10-03T00:55:49.495Z,70.77
2022-10-03T00:58:15.818Z,70.47
2022-10-03T01:00:42.179Z,70.47
2022-10-03T01:03:08.475Z,70.58
2022-10-03T01:05:34.800Z,70.71
2022-10-03T01:08:01.140Z,70.98
2022-10-03T01:10:27.462Z,71.13
2022-10-03T01:12:53.843Z,71.41
2022-10-03T01:15:20.173Z,71.57
2022-10-03T01:17:46.491Z,71.61
2022-10-03T01:20:12.836Z,71.70
2022-10-03T01:22:39.178Z,71.75
2022-10-03T01:25:05.516Z,71.67
2022-10-03T01:27:31.881Z,71.35
2022-10-03T01:29:58.200Z,71.21
2022-10-03T01:32:24.538Z,71.19
2022-10-03T01:34:50.859Z,71.35
2022-10-03T01:37:17.199Z,71.42
2022-10-03T01:39:43.517Z,71.41
2022-10-03T01:42:09.861Z,71.43
2022-10-03T01:44:36.180Z,71.58
2022-10-03T01:47:02.522Z,71.44
2022-10-03T01:49:28.856Z,71.47
2022-10-03T01:51:55.170Z,71.54
2022-10-03T01:54:21.491Z,71.66
2022-10-03T01:56:47.861Z,71.79
2022-10-03T01:59:14.202Z,71.93
2022-10-03T02:01:40.843Z,72.04
2022-10-03T02:04:06.883Z,72.15
2022-10-03T02:06:33.200Z,72.18
2022-10-03T02:08:59.525Z,72.23
2022-10-03T02:11:25.845Z,72.32
2022-10-03T02:13:52.209Z,72.32
2022-10-03T02:16:18.576Z,72.43
2022-10-03T02:18:44.886Z,72.67
2022-10-03T02:21:11.224Z,72.85
2022-10-03T02:23:37.565Z,73.03
2022-10-03T02:26:03.882Z,73.07
2022-10-03T02:28:30.284Z,73.22
2022-10-03T02:30:56.540Z,73.25
2022-10-03T02:33:22.887Z,73.17
2022-10-03T02:35:49.221Z,73.08
2022-10-03T02:38:15.591Z,72.89
2022-10-03T02:40:41.926Z,72.78
2022-10-03T02:43:08.278Z,72.77
2022-10-03T02:45:34.653Z,72.69
2022-10-03T02:48:27.092Z,72.54
2022-10-03T02:50:27.312Z,72.42
2022-10-03T02:52:53.661Z,72.22
2022-10-03T02:55:19.998Z,72.27
2022-10-03T02:57:46.339Z,72.33
2022-10-03T03:00:12.659Z,72.33
2022-10-03T03:02:38.981Z,72.38
2022-10-03T03:05:05.299Z,72.61
2022-10-03T03:07:31.645Z,72.88
2022-10-03T03:09:57.966Z,72.80
2022-10-03T03:12:24.306Z,73.01
2022-10-03T03:14:50.621Z,73.01
2022-10-03T03:17:16.966Z,73.21
2022-10-03T03:19:43.319Z,73.37
2022-10-03T03:22:09.665Z,73.58
2022-10-03T03:24:35.999Z,73.78
2022-10-03T03:27:02.340Z,73.83
2022-10-03T03:29:28.657Z,73.89
2022-10-03T03:31:55.065Z,74.01
2022-10-03T03:34:21.321Z,73.96
2022-10-03T03:36:47.661Z,74.08
2022-10-03T03:39:13.997Z,74.29
2022-10-03T03:41:40.578Z,74.41
2022-10-03T03:44:06.670Z,74.33
2022-10-03T03:46:33.022Z,74.51
2022-10-03T03:48:59.362Z,74.59
2022-10-03T03:51:25.682Z,74.53
2022-10-03T03:53:52.015Z,74.60
2022-10-03T03:56:18.359Z,74.70
2022-10-03T03:58:44.702Z,74.90
2022-10-03T04:01:11.087Z,75.22
2022-10-03T04:03:37.358Z,75.39
2022-10-03T04:06:03.677Z,75.36
2022-10-03T04:08:30.023Z,75.35
2022-10-03T04:10:56.354Z,75.38
2022-10-03T04:13:22.697Z,75.48
2022-10-03T04:15:49.040Z,75.37
2022-10-03T04:18:15.355Z,75.41
2022-10-03T04:20:41.691Z,75.64
2022-10-03T04:23:08.055Z,75.80
2022-10-03T04:25:34.442Z,75.66
2022-10-03T04:28:00.852Z,75.54
2022-10-03T04:30:27.098Z,75.56
2022-10-03T04:32:53.430Z,75.42
2022-10-03T04:35:19.747Z,75.37
2022-10-03T04:37:46.108Z,75.30
2022-10-03T04:40:12.486Z,86.82
2022-10-03T04:42:38.799Z,95.30
2022-10-03T04:45:05.121Z,100.00
2022-10-03T04:47:31.468Z,100.00
2022-10-03T04:49:57.823Z,100.00
2022-10-03T04:52:24.170Z,100.00
2022-10-03T04:54:50.507Z,100.00
2022-10-03T04:57:16.891Z,100.00
2022-10-03T04:59:43.208Z,100.00
2022-10-03T05:02:09.620Z,100.00
2022-10-03T05:04:35.854Z,100.00
2022-10-03T05:07:02.203Z,92.49
2022-10-03T05:09:28.514Z,87.47
2022-10-03T05:11:54.833Z,85.88
2022-10-03T05:14:21.157Z,85.92
2022-10-03T05:16:47.586Z,84.46
2022-10-03T05:19:13.842Z,84.16
2022-10-03T05:21:40.657Z,83.90
2022-10-03T05:24:06.553Z,83.62
2022-10-03T05:26:44.576Z,82.90
2022-10-03T05:28:59.270Z,82.56
2022-10-03T05:31:25.654Z,82.59
2022-10-03T05:33:51.932Z,83.06
2022-10-03T05:36:18.307Z,83.34
2022-10-03T05:38:44.641Z,82.82
2022-10-03T05:41:10.983Z,81.31
2022-10-03T05:43:37.299Z,81.43
2022-10-03T05:46:03.704Z,81.19
2022-10-03T05:48:29.957Z,81.03
2022-10-03T05:50:56.314Z,81.47
2022-10-03T05:53:22.671Z,81.94
2022-10-03T05:55:48.992Z,82.20
2022-10-03T05:58:15.326Z,82.65
2022-10-03T06:00:41.656Z,82.77
2022-10-03T06:03:08.106Z,82.72
2022-10-03T06:05:34.399Z,82.42
2022-10-03T06:08:00.726Z,82.27
2022-10-03T06:10:27.037Z,81.91
2022-10-03T06:12:53.377Z,81.93
2022-10-03T06:15:19.908Z,82.39
2022-10-03T06:17:46.245Z,82.67
2022-10-03T06:20:12.595Z,83.51
2022-10-03T06:22:38.954Z,82.95
2022-10-03T06:25:05.319Z,83.16
2022-10-03T06:27:31.631Z,82.95
2022-10-03T06:29:57.990Z,82.71
2022-10-03T06:32:24.328Z,82.12
2022-10-03T06:34:50.645Z,81.02
2022-10-03T06:37:16.970Z,81.16
2022-10-03T06:39:43.306Z,80.91
2022-10-03T06:42:09.647Z,80.89
2022-10-03T06:44:35.982Z,80.82
2022-10-03T06:47:02.354Z,80.79
2022-10-03T06:49:28.670Z,80.91
2022-10-03T06:51:55.005Z,80.83
2022-10-03T06:54:21.365Z,80.93
2022-10-03T06:56:50.081Z,80.85
2022-10-03T06:59:14.053Z,81.26
2022-10-03T07:01:40.754Z,81.30
2022-10-03T07:04:06.757Z,81.18
2022-10-03T07:06:33.050Z,81.46
2022-10-03T07:08:59.422Z,81.32
2022-10-03T07:11:25.756Z,81.36
2022-10-03T07:13:52.080Z,81.53
2022-10-03T07:16:26.907Z,81.82
2022-10-03T07:18:44.764Z,81.95
2022-10-03T07:21:14.798Z,82.12
2022-10-03T07:23:37.556Z,82.66
2022-10-03T07:26:03.894Z,83.08
2022-10-03T07:28:30.442Z,82.96
2022-10-03T07:30:56.627Z,83.14
2022-10-03T07:33:23.027Z,83.32
2022-10-03T07:35:49.280Z,83.50
2022-10-03T07:38:15.596Z,83.85
2022-10-03T07:40:41.935Z,83.89
2022-10-03T07:43:08.278Z,83.90
2022-10-03T07:45:34.693Z,84.00
2022-10-03T07:48:00.988Z,84.10
2022-10-03T07:50:27.323Z,84.26
2022-10-03T07:52:53.676Z,84.13
2022-10-03T07:55:19.997Z,83.93
2022-10-03T07:57:46.340Z,83.62
2022-10-03T08:00:12.681Z,83.68
2022-10-03T08:02:39.144Z,83.56
2022-10-03T08:05:05.318Z,83.34
2022-10-03T08:07:31.670Z,83.76
2022-10-03T08:09:57.983Z,83.64
2022-10-03T08:12:24.308Z,83.83
2022-10-03T08:14:50.648Z,84.29
2022-10-03T08:17:16.970Z,84.33
2022-10-03T08:19:43.292Z,84.42
2022-10-03T08:22:09.630Z,84.79
2022-10-03T08:24:35.956Z,85.02
2022-10-03T08:27:02.300Z,85.09
2022-10-03T08:29:28.633Z,85.13
2022-10-03T08:31:54.957Z,85.68
2022-10-03T08:34:21.292Z,86.15
2022-10-03T08:36:47.633Z,86.36
2022-10-03T08:39:13.986Z,86.49
2022-10-03T08:41:40.515Z,86.75
2022-10-03T08:44:06.649Z,86.89
2022-10-03T08:46:33.027Z,87.19
2022-10-03T08:48:59.322Z,87.25
2022-10-03T08:51:25.667Z,87.41
2022-10-03T08:53:51.979Z,87.68
2022-10-03T08:56:18.321Z,87.98
2022-10-03T08:58:44.653Z,88.30
2022-10-03T09:01:11.015Z,88.74
2022-10-03T09:03:42.084Z,88.54
2022-10-03T09:06:03.673Z,88.28
2022-10-03T09:08:29.977Z,88.62
2022-10-03T09:10:56.301Z,88.63
2022-10-03T09:13:22.632Z,88.67
2022-10-03T09:15:49.015Z,88.17
2022-10-03T09:18:15.286Z,88.19
2022-10-03T09:20:41.639Z,88.12
2022-10-03T09:23:07.966Z,88.25
2022-10-03T09:25:34.297Z,88.43
2022-10-03T09:28:00.665Z,88.36
2022-10-03T09:30:26.955Z,88.25
2022-10-03T09:32:53.258Z,87.63
2022-10-03T09:35:19.847Z,86.84
2022-10-03T09:37:46.174Z,86.24
2022-10-03T09:40:12.532Z,85.60
2022-10-03T09:42:38.877Z,85.35
2022-10-03T09:45:05.267Z,85.40
2022-10-03T09:47:31.572Z,85.62
2022-10-03T09:49:57.890Z,85.06
2022-10-03T09:52:24.237Z,83.92
2022-10-03T09:54:50.569Z,82.43
2022-10-03T09:57:22.046Z,81.58
2022-10-03T09:59:43.240Z,81.10
2022-10-03T10:02:09.606Z,81.21
2022-10-03T10:04:53.541Z,81.44
2022-10-03T10:07:02.295Z,80.60
2022-10-03T10:09:28.662Z,78.81
2022-10-03T10:11:54.983Z,76.76
2022-10-03T10:14:21.302Z,75.53
2022-10-03T10:16:48.595Z,74.53
2022-10-03T10:19:14.002Z,73.71
2022-10-03T10:21:40.323Z,73.51
2022-10-03T10:24:06.679Z,72.92
2022-10-03T10:26:33.011Z,71.64
2022-10-03T10:28:59.332Z,71.94
2022-10-03T10:31:25.719Z,71.84
2022-10-03T10:33:51.972Z,72.50
2022-10-03T10:36:18.274Z,71.34
2022-10-03T10:38:44.646Z,71.67
2022-10-03T10:41:10.991Z,71.73
2022-10-03T10:43:37.321Z,71.17
2022-10-03T10:46:03.646Z,71.17
2022-10-03T10:48:29.982Z,70.63
2022-10-03T10:50:56.315Z,69.38
2022-10-03T10:53:22.637Z,68.10
2022-10-03T10:55:48.973Z,67.48
2022-10-03T10:58:15.333Z,66.35
2022-10-03T11:00:41.671Z,66.65
2022-10-03T11:03:07.961Z,66.56
2022-10-03T11:05:34.305Z,65.39
2022-10-03T11:08:00.625Z,65.12
2022-10-03T11:10:26.940Z,65.09
2022-10-03T11:12:53.328Z,64.71
2022-10-03T11:15:19.629Z,64.36
2022-10-03T11:17:45.965Z,63.21
2022-10-03T11:20:12.314Z,62.46
2022-10-03T11:22:38.648Z,62.81
2022-10-03T11:25:04.982Z,62.51
2022-10-03T11:27:31.346Z,62.00
2022-10-03T11:29:57.644Z,62.51
2022-10-03T11:32:23.977Z,62.53
2022-10-03T11:34:50.303Z,62.85
2022-10-03T11:37:16.663Z,62.18
2022-10-03T11:39:43.033Z,62.13
2022-10-03T11:42:09.356Z,61.32
2022-10-03T11:44:35.673Z,61.66
2022-10-03T11:47:02.052Z,61.89
2022-10-03T11:49:28.463Z,62.76
2022-10-03T11:51:54.781Z,62.43
2022-10-03T11:54:31.029Z,61.46
2022-10-03T11:56:47.489Z,60.31
2022-10-03T11:59:13.913Z,59.88
2022-10-03T12:01:40.568Z,59.75
2022-10-03T12:04:06.621Z,59.42
2022-10-03T12:06:32.933Z,59.53
2022-10-03T12:08:59.256Z,59.24
2022-10-03T12:11:25.620Z,58.96
2022-10-03T12:13:51.950Z,58.86
2022-10-03T12:16:18.329Z,58.40
2022-10-03T12:18:44.645Z,58.34
2022-10-03T12:21:10.973Z,57.68
2022-10-03T12:23:37.298Z,57.94
2022-10-03T12:26:03.680Z,57.08
2022-10-03T12:28:30.035Z,56.27
2022-10-03T12:30:56.315Z,55.80
2022-10-03T12:33:22.690Z,54.98
2022-10-03T12:35:49.026Z,53.92
2022-10-03T12:38:15.360Z,53.12
2022-10-03T12:40:41.683Z,52.83
2022-10-03T12:43:08.001Z,52.71
2022-10-03T12:45:34.363Z,52.00
2022-10-03T12:48:00.663Z,52.04
2022-10-03T12:50:27.004Z,52.28
2022-10-03T12:52:53.342Z,51.48
2022-10-03T12:55:19.675Z,51.23
2022-10-03T12:57:45.978Z,50.92
2022-10-03T13:00:12.300Z,50.94
2022-10-03T13:02:38.751Z,51.53
2022-10-03T13:05:05.020Z,51.32
2022-10-03T13:07:31.342Z,50.79
2022-10-03T13:09:57.715Z,50.38
2022-10-03T13:12:27.694Z,50.18
2022-10-03T13:14:50.373Z,50.51
2022-10-03T13:17:16.714Z,50.64
2022-10-03T13:19:43.058Z,50.63
2022-10-03T13:22:10.404Z,50.67
2022-10-03T13:24:36.766Z,51.00
2022-10-03T13:27:03.082Z,51.37
2022-10-03T13:29:29.425Z,51.64
2022-10-03T13:31:55.766Z,51.25
2022-10-03T13:34:22.100Z,51.29
2022-10-03T13:36:48.415Z,51.03
2022-10-03T13:39:14.747Z,51.16
2022-10-03T13:41:41.516Z,50.86
2022-10-03T13:44:07.413Z,50.68
2022-10-03T13:46:33.868Z,50.62
2022-10-03T13:49:02.179Z,50.30
2022-10-03T13:51:26.459Z,50.36
2022-10-03T13:53:52.780Z,50.66
2022-10-03T13:56:19.090Z,50.79
2022-10-03T13:58:45.444Z,51.01
2022-10-03T14:01:11.826Z,51.21
2022-10-03T14:03:38.149Z,51.51
2022-10-03T14:06:04.463Z,51.53
2022-10-03T14:08:30.800Z,51.66
2022-10-03T14:10:57.134Z,51.84
2022-10-03T14:13:23.510Z,51.77
2022-10-03T14:15:49.929Z,51.40
2022-10-03T14:18:16.208Z,51.15
2022-10-03T14:20:42.510Z,51.22
2022-10-03T14:23:08.826Z,51.44
2022-10-03T14:25:35.185Z,51.55
2022-10-03T14:28:01.619Z,51.62
2022-10-03T14:30:27.838Z,51.60
2022-10-03T14:32:54.260Z,51.55
2022-10-03T14:35:20.529Z,51.17
2022-10-03T14:37:46.862Z,50.80
2022-10-03T14:40:13.180Z,50.77
2022-10-03T14:42:39.481Z,50.77
2022-10-03T14:45:05.815Z,50.86
2022-10-03T14:47:32.143Z,51.00
2022-10-03T14:49:59.751Z,51.50
2022-10-03T14:52:24.824Z,51.96
2022-10-03T14:54:51.135Z,52.23
2022-10-03T14:57:17.455Z,52.47
2022-10-03T14:59:43.806Z,52.28
2022-10-03T15:02:10.196Z,52.50
2022-10-03T15:04:36.466Z,52.82
2022-10-03T15:07:02.781Z,53.18
2022-10-03T15:09:29.167Z,53.48
2022-10-03T15:11:55.487Z,53.75
2022-10-03T15:14:21.831Z,54.12
2022-10-03T15:16:48.186Z,54.34
2022-10-03T15:19:14.507Z,54.49
2022-10-03T15:21:41.107Z,54.39
2022-10-03T15:24:07.220Z,54.63
2022-10-03T15:26:33.522Z,54.67
2022-10-03T15:28:59.865Z,54.69
2022-10-03T15:31:26.267Z,54.80
2022-10-03T15:33:52.593Z,54.75
2022-10-03T15:36:18.927Z,54.87
2022-10-03T15:38:45.254Z,55.14
2022-10-03T15:41:11.599Z,55.21
2022-10-03T15:43:37.949Z,55.26
2022-10-03T15:46:04.356Z,55.65
2022-10-03T15:48:30.619Z,55.60
2022-10-03T15:50:56.998Z,55.84
2022-10-03T15:53:38.345Z,55.84
2022-10-03T15:55:49.644Z,55.60
2022-10-03T15:58:15.999Z,55.58
2022-10-03T16:00:42.356Z,55.79
2022-10-03T16:03:08.654Z,56.11
2022-10-03T16:05:34.969Z,56.19
2022-10-03T16:08:01.297Z,56.40
2022-10-03T16:10:27.698Z,56.61
2022-10-03T16:12:54.074Z,56.40
2022-10-03T16:15:20.377Z,56.70
2022-10-03T16:17:46.739Z,56.82
2022-10-03T16:20:13.087Z,57.00
2022-10-03T16:22:39.713Z,57.09
2022-10-03T16:25:06.083Z,57.17
2022-10-03T16:27:32.411Z,57.14
2022-10-03T16:29:58.748Z,57.21
2022-10-03T16:32:25.070Z,57.29
2022-10-03T16:34:51.397Z,57.60
2022-10-03T16:37:17.727Z,57.60
2022-10-03T16:39:46.436Z,57.63
2022-10-03T16:42:10.406Z,57.61
2022-10-03T16:44:36.783Z,57.71
2022-10-03T16:47:03.163Z,58.43
2022-10-03T16:49:29.482Z,58.84
2022-10-03T16:51:55.809Z,58.50
2022-10-03T16:54:22.186Z,58.37
2022-10-03T16:56:48.508Z,58.45
2022-10-03T16:59:14.844Z,58.68
2022-10-03T17:01:41.583Z,58.85
2022-10-03T17:04:07.555Z,59.09
2022-10-03T17:06:33.877Z,59.73
2022-10-03T17:09:00.227Z,59.94
2022-10-03T17:11:26.547Z,59.71
2022-10-03T17:13:52.897Z,59.70
2022-10-03T17:16:19.327Z,59.86
2022-10-03T17:18:45.614Z,59.86
2022-10-03T17:21:11.935Z,59.98
2022-10-03T17:23:38.307Z,59.80
2022-10-03T17:26:04.647Z,59.88
2022-10-03T17:28:31.042Z,59.81
2022-10-03T17:30:57.317Z,59.68
2022-10-03T17:33:23.651Z,59.96
2022-10-03T17:35:49.976Z,59.96
2022-10-03T17:38:44.461Z,60.07
2022-10-03T17:40:42.658Z,60.04
2022-10-03T17:43:08.993Z,60.18
2022-10-03T17:45:35.399Z,60.25
2022-10-03T17:48:01.656Z,60.30
2022-10-03T17:50:27.970Z,60.44
2022-10-03T17:52:54.322Z,60.25
2022-10-03T17:55:20.646Z,60.32
2022-10-03T17:57:46.984Z,60.32
2022-10-03T18:00:13.340Z,64.58
2022-10-03T18:02:39.729Z,64.48
2022-10-03T18:05:05.976Z,63.64
2022-10-03T18:07:32.299Z,63.23
2022-10-03T18:09:58.697Z,62.83
2022-10-03T18:12:25.004Z,62.84
2022-10-03T18:14:51.326Z,62.74
2022-10-03T18:17:17.680Z,62.71
2022-10-03T18:19:44.048Z,62.72
2022-10-03T18:22:10.388Z,62.86
2022-10-03T18:24:36.707Z,62.75
2022-10-03T18:27:03.067Z,62.81
2022-10-03T18:29:29.393Z,62.94
2022-10-03T18:31:55.824Z,62.93
2022-10-03T18:34:22.068Z,62.91
2022-10-03T18:36:48.404Z,62.78
2022-10-03T18:39:14.733Z,62.47
2022-10-03T18:41:41.263Z,62.15
2022-10-03T18:44:07.403Z,61.92
2022-10-03T18:46:33.763Z,61.92
2022-10-03T18:51:26.440Z,61.72
2022-10-03T18:53:52.782Z,61.70
2022-10-03T18:56:19.103Z,61.74
2022-10-03T18:58:45.426Z,61.43
2022-10-03T19:01:11.865Z,61.41
2022-10-03T19:03:38.108Z,61.29
2022-10-03T19:06:04.443Z,61.29
2022-10-03T19:08:30.881Z,61.34
2022-10-03T19:10:57.129Z,61.45
2022-10-03T19:13:23.450Z,61.49
2022-10-03T19:15:49.784Z,61.50
2022-10-03T19:18:16.142Z,61.47
2022-10-03T19:20:42.445Z,61.71
2022-10-03T19:23:08.795Z,61.59
2022-10-03T19:25:35.108Z,61.65
2022-10-03T19:28:01.572Z,61.69
2022-10-03T19:30:27.795Z,61.74
2022-10-03T19:32:54.115Z,61.71
2022-10-03T19:35:20.465Z,61.52
2022-10-03T19:37:46.809Z,61.80
2022-10-03T19:40:13.151Z,61.74
2022-10-03T19:42:39.476Z,61.74
2022-10-03T19:45:05.799Z,61.83
2022-10-03T19:47:32.144Z,61.80
2022-10-03T19:49:58.489Z,61.92
2022-10-03T19:52:24.830Z,64.48
2022-10-03T19:54:51.147Z,63.96
2022-10-03T19:57:17.485Z,63.72
2022-10-03T19:59:43.826Z,63.09
2022-10-03T20:02:10.191Z,62.53
2022-10-03T20:04:37.037Z,62.23
2022-10-03T20:07:02.834Z,62.18
2022-10-03T20:09:29.177Z,62.04
2022-10-03T20:11:55.517Z,61.78
2022-10-03T20:14:21.889Z,61.85
2022-10-03T20:16:48.308Z,61.95
2022-10-03T20:19:14.566Z,62.18
2022-10-03T20:21:41.161Z,62.22
2022-10-03T20:24:07.276Z,62.35
2022-10-03T20:26:33.592Z,62.47
2022-10-03T20:28:59.947Z,62.54
2022-10-03T20:31:26.304Z,62.50
2022-10-03T20:33:52.584Z,62.39
2022-10-03T20:36:18.976Z,62.65
2022-10-03T20:38:45.316Z,62.77
2022-10-03T20:41:11.639Z,62.75
2022-10-03T20:43:41.554Z,62.99
2022-10-03T20:46:04.349Z,63.03
2022-10-03T20:48:30.663Z,63.15
2022-10-03T20:50:56.983Z,63.09
2022-10-03T20:53:23.327Z,63.26
2022-10-03T20:55:49.650Z,63.17
2022-10-03T20:58:15.993Z,63.38
2022-10-03T21:00:42.353Z,63.42
2022-10-03T21:03:08.637Z,63.71
2022-10-03T21:05:35.021Z,63.75
2022-10-03T21:08:01.298Z,63.61
2022-10-03T21:10:27.624Z,63.80
2022-10-03T21:12:53.966Z,63.81
2022-10-03T21:15:20.307Z,63.89
2022-10-03T21:17:46.625Z,63.94
2022-10-03T21:20:12.952Z,64.04
2022-10-03T21:22:39.286Z,64.20
2022-10-03T21:25:05.631Z,64.32
2022-10-03T21:27:31.962Z,64.58
2022-10-03T21:29:58.285Z,64.77
2022-10-03T21:32:24.616Z,64.98
2022-10-03T21:34:50.975Z,65.01
2022-10-03T21:37:17.291Z,65.27
2022-10-03T21:39:43.632Z,65.33
2022-10-03T21:42:09.948Z,65.20
2022-10-03T21:44:36.331Z,65.19
2022-10-03T21:47:02.682Z,65.39
2022-10-03T21:49:29.024Z,65.50
2022-10-03T21:51:55.340Z,65.57
2022-10-03T21:54:21.690Z,65.49
2022-10-03T21:56:48.010Z,65.60
2022-10-03T21:59:14.356Z,65.72
2022-10-03T22:01:40.990Z,65.72
2022-10-03T22:04:07.017Z,65.72
2022-10-03T22:06:33.358Z,65.79
2022-10-03T22:08:59.679Z,65.67
2022-10-03T22:11:26.053Z,65.54
2022-10-03T22:13:52.396Z,65.58
2022-10-03T22:16:18.757Z,65.38
2022-10-03T22:18:45.059Z,65.36
2022-10-03T22:21:11.401Z,65.40
2022-10-03T22:23:37.741Z,65.41
2022-10-03T22:26:04.057Z,65.37
2022-10-03T22:28:30.411Z,65.28
2022-10-03T22:30:56.747Z,65.25
2022-10-03T22:33:23.063Z,65.40
2022-10-03T22:35:49.380Z,65.58
2022-10-03T22:38:15.702Z,65.81
2022-10-03T22:40:42.024Z,65.76
2022-10-03T22:43:08.349Z,65.56
2022-10-03T22:45:34.667Z,65.69
2022-10-03T22:48:01.059Z,65.76
2022-10-03T22:50:27.394Z,65.55
2022-10-03T22:52:53.735Z,65.25
2022-10-03T22:55:20.069Z,65.10
2022-10-03T22:57:46.382Z,65.25
2022-10-03T23:00:12.749Z,65.27
2022-10-03T23:02:39.154Z,65.19
2022-10-03T23:05:05.427Z,65.17
2022-10-03T23:07:31.814Z,65.46
2022-10-03T23:09:58.131Z,65.40
2022-10-03T23:12:24.490Z,65.32
2022-10-03T23:14:50.817Z,65.48
2022-10-03T23:17:17.161Z,65.64
2022-10-03T23:19:43.474Z,65.77
2022-10-03T23:22:09.834Z,65.91
2022-10-03T23:24:36.146Z,65.79
2022-10-03T23:27:02.491Z,65.87
2022-10-03T23:29:28.829Z,65.85
2022-10-03T23:31:55.190Z,65.81
2022-10-03T23:34:21.539Z,65.88
2022-10-03T23:36:47.881Z,65.95
2022-10-03T23:39:14.290Z,65.83
2022-10-03T23:41:40.660Z,65.42
2022-10-03T23:44:06.883Z,65.28
2022-10-03T23:46:33.248Z,65.20
2022-10-03T23:48:59.551Z,65.12
2022-10-03T23:51:25.934Z,65.16
2022-10-03T23:53:52.249Z,65.27
2022-10-03T23:56:18.585Z,65.31
2022-10-03T23:58:45.206Z,65.52
